CYXU

London Airport

London, Ontario, Canada
TAF CYXU 251738Z 2518/2618 30010KT 3/4SM BR OVC002 TEMPO 2518/2520 4SM -RA -DZ BR OVC006 FM252000 32010G20KT 5SM -RA -DZ BR OVC006 TEMPO 2520/2523 P6SM NSW OVC010 FM252300 33012G22KT P6SM BKN012 OVC030 TEMPO 2523/2609 6SM -DZ -RA BR OVC008 FM260900 32010KT P6SM FEW007 SCT030 PROB30 2609/2612 2SM BR BKN005 FM261400 30010KT P6SM SKC RMK NXT FCST BY 260000Z
Issued Valid From Valid To
Apr-25 @ 17:38 UTC
(36 minutes ago)
Apr-25 @ 18:00 UTC
(14 minutes ago)
Apr-26 @ 18:00 UTC
(in 24 hours)
Apr-25 @ 18:00 to Apr-25 @ 20:00
TAF CYXU 251738Z 2518/2618 30010KT 3/4SM BR OVC002
Wind Visibility Clouds Conditions
300° at 10 knots 3/4 miles
  • Overcast at 200' AGL
  • Mist
Temporary Apr-25 @ 18:00 to Apr-25 @ 20:00
TEMPO 2518/2520 4SM -RA -DZ BR OVC006
Visibility Clouds Conditions
4 miles
  • Overcast at 600' AGL
  • Light Rain
  • Light Drizzle
  • Mist
From Apr-25 @ 20:00 to Apr-25 @ 23:00
FM252000 32010G20KT 5SM -RA -DZ BR OVC006
Wind Visibility Clouds Conditions
320° at 10 knots
 Gusting to 20 knots
5 miles
  • Overcast at 600' AGL
  • Light Rain
  • Light Drizzle
  • Mist
Temporary Apr-25 @ 20:00 to Apr-25 @ 23:00
TEMPO 2520/2523 P6SM NSW OVC010
Visibility Clouds Conditions
Greater than 6 miles
  • Overcast at 1,000' AGL
From Apr-25 @ 23:00 to Apr-26 @ 09:00
FM252300 33012G22KT P6SM BKN012 OVC030
Wind Visibility Clouds
330° at 12 knots
 Gusting to 22 knots
Greater than 6 miles
  • Broken at 1,200' AGL
  • Overcast at 3,000' AGL
Temporary Apr-25 @ 23:00 to Apr-26 @ 09:00
TEMPO 2523/2609 6SM -DZ -RA BR OVC008
Visibility Clouds Conditions
6 miles
  • Overcast at 800' AGL
  • Light Drizzle
  • Light Rain
  • Mist
Probable  (Probability 30%) Apr-26 @ 09:00 to Apr-26 @ 12:00
PROB30 2609/2612 2SM BR BKN005
Visibility Clouds Conditions
2 miles
  • Broken at 500' AGL
  • Mist
From Apr-26 @ 09:00 to Apr-26 @ 14:00
FM260900 32010KT P6SM FEW007 SCT030
Wind Visibility Clouds
320° at 10 knots Greater than 6 miles
  • Few at 700' AGL
  • Scattered at 3,000' AGL
From Apr-26 @ 14:00 to Apr-26 @ 18:00
FM261400 30010KT P6SM SKC RMK NXT FCST BY 260000Z
Wind Visibility Clouds
300° at 10 knots Greater than 6 miles
  • Clear skies
TAF CYXU 251738Z 2518/2618 30010KT 3/4SM BR OVC002 TEMPO 2518/2520 4SM -RA -DZ BR OVC006 FM252000 32010G20KT 5SM -RA -DZ BR OVC006 TEMPO 2520/2523 P6SM NSW OVC010 FM252300 33012G22KT P6SM BKN012 OVC030 TEMPO 2523/2609 6SM -DZ -RA BR OVC008 FM260900 32010KT P6SM FEW007 SCT030 PROB30 2609/2612 2SM BR BKN005 FM261400 30010KT P6SM SKC RMK NXT FCST BY 260000Z
Issued Apr-25 @ 17:38 UTC
(36 minutes ago)
Valid From Apr-25 @ 18:00 UTC
(14 minutes ago)
Valid To Apr-26 @ 18:00 UTC
(in 24 hours)
Apr-25 @ 18:00 - Apr-25 @ 20:00
Wind Visibility
300° at 10 knots 3/4 miles
Clouds
  • Overcast at 200' AGL
Conditions
  • Mist
Temporary Apr-25 @ 18:00 - Apr-25 @ 20:00
Clouds
  • Overcast at 600' AGL
Conditions
  • Light Rain
  • Light Drizzle
  • Mist
From Apr-25 @ 20:00 - Apr-25 @ 23:00
Wind Visibility
320° at 10 knots
 Gusting to 20 knots
5 miles
Clouds
  • Overcast at 600' AGL
Conditions
  • Light Rain
  • Light Drizzle
  • Mist
Temporary Apr-25 @ 20:00 - Apr-25 @ 23:00
Clouds
  • Overcast at 1,000' AGL
Conditions
From Apr-25 @ 23:00 - Apr-26 @ 09:00
Wind Visibility
330° at 12 knots
 Gusting to 22 knots
Greater than 6 miles
Clouds
  • Broken at 1,200' AGL
  • Overcast at 3,000' AGL
Temporary Apr-25 @ 23:00 - Apr-26 @ 09:00
Clouds
  • Overcast at 800' AGL
Conditions
  • Light Drizzle
  • Light Rain
  • Mist
Probability 30% Probable Apr-26 @ 09:00 - Apr-26 @ 12:00
Clouds
  • Broken at 500' AGL
Conditions
  • Mist
From Apr-26 @ 09:00 - Apr-26 @ 14:00
Wind Visibility
320° at 10 knots Greater than 6 miles
Clouds
  • Few at 700' AGL
  • Scattered at 3,000' AGL
From Apr-26 @ 14:00 - Apr-26 @ 18:00
Wind Visibility
300° at 10 knots Greater than 6 miles
Clouds
  • Clear skies